Terminal Aerodrome Forecast
Issued by NWS Quad Cities IA IL

Home | Current Version | Previous Version | Text Only | Print | Product List | Glossary On
Versions: 1 2 3 4 5 6 7 8 9 10 11 12 13 14 15 16 17
000
FTUS43 KDVN 252108 AAA
TAFMLI
TAF AMD
KMLI 252108Z 2521/2618 19010KT P6SM VCSH SCT070
     FM260100 16004KT P6SM SCT100
     FM261500 25006KT P6SM BKN100=

USA.gov is the U.S. government's official web portal to all federal, state and local government web resources and services.